sensor_id;sensor_type;location;lat;lon;timestamp;P1;durP1;ratioP1;P2;durP2;ratioP2
12511;SDS011;6321;53.798;10.382;2022-09-13T00:00:42;6.33;;;4.33;;
12511;SDS011;6321;53.798;10.382;2022-09-13T00:03:09;4.30;;;3.90;;
12511;SDS011;6321;53.798;10.382;2022-09-13T00:05:36;6.20;;;4.13;;
12511;SDS011;6321;53.798;10.382;2022-09-13T00:08:02;4.83;;;4.40;;
12511;SDS011;6321;53.798;10.382;2022-09-13T00:10:29;5.00;;;3.73;;
12511;SDS011;6321;53.798;10.382;2022-09-13T00:12:55;6.00;;;4.10;;
12511;SDS011;6321;53.798;10.382;2022-09-13T00:15:21;5.03;;;4.30;;
12511;SDS011;6321;53.798;10.382;2022-09-13T00:17:46;4.60;;;4.20;;
12511;SDS011;6321;53.798;10.382;2022-09-13T00:20:12;4.80;;;4.40;;
12511;SDS011;6321;53.798;10.382;2022-09-13T00:22:38;4.73;;;4.07;;
12511;SDS011;6321;53.798;10.382;2022-09-13T00:25:04;4.37;;;3.97;;
12511;SDS011;6321;53.798;10.382;2022-09-13T00:27:32;4.17;;;3.77;;
12511;SDS011;6321;53.798;10.382;2022-09-13T00:29:58;4.30;;;3.90;;
12511;SDS011;6321;53.798;10.382;2022-09-13T00:32:24;4.70;;;4.03;;
12511;SDS011;6321;53.798;10.382;2022-09-13T00:34:49;4.07;;;3.70;;
12511;SDS011;6321;53.798;10.382;2022-09-13T00:37:15;4.40;;;4.00;;
12511;SDS011;6321;53.798;10.382;2022-09-13T00:39:41;4.50;;;4.10;;
12511;SDS011;6321;53.798;10.382;2022-09-13T00:42:10;4.17;;;3.87;;
12511;SDS011;6321;53.798;10.382;2022-09-13T00:47:12;4.53;;;4.13;;
12511;SDS011;6321;53.798;10.382;2022-09-13T00:49:39;4.90;;;4.30;;
12511;SDS011;6321;53.798;10.382;2022-09-13T00:52:07;6.17;;;5.00;;
12511;SDS011;6321;53.798;10.382;2022-09-13T00:54:36;6.23;;;3.90;;
12511;SDS011;6321;53.798;10.382;2022-09-13T00:57:04;6.43;;;4.57;;
12511;SDS011;6321;53.798;10.382;2022-09-13T00:59:37;4.87;;;4.40;;
12511;SDS011;6321;53.798;10.382;2022-09-13T01:02:04;5.43;;;4.17;;
12511;SDS011;6321;53.798;10.382;2022-09-13T01:04:31;5.00;;;4.60;;
12511;SDS011;6321;53.798;10.382;2022-09-13T01:06:59;7.93;;;4.80;;
12511;SDS011;6321;53.798;10.382;2022-09-13T01:09:27;4.97;;;4.53;;
12511;SDS011;6321;53.798;10.382;2022-09-13T01:11:56;5.10;;;4.63;;
12511;SDS011;6321;53.798;10.382;2022-09-13T01:14:28;5.03;;;4.53;;
12511;SDS011;6321;53.798;10.382;2022-09-13T01:16:54;5.37;;;4.97;;
12511;SDS011;6321;53.798;10.382;2022-09-13T01:19:20;5.40;;;4.93;;
12511;SDS011;6321;53.798;10.382;2022-09-13T01:29:57;6.17;;;5.57;;
12511;SDS011;6321;53.798;10.382;2022-09-13T01:32:27;5.50;;;5.00;;
12511;SDS011;6321;53.798;10.382;2022-09-13T01:35:00;7.57;;;6.17;;
12511;SDS011;6321;53.798;10.382;2022-09-13T01:37:38;6.30;;;5.70;;
12511;SDS011;6321;53.798;10.382;2022-09-13T01:47:52;7.10;;;5.50;;
12511;SDS011;6321;53.798;10.382;2022-09-13T01:50:22;7.20;;;6.53;;
12511;SDS011;6321;53.798;10.382;2022-09-13T01:52:57;7.27;;;6.00;;
12511;SDS011;6321;53.798;10.382;2022-09-13T01:57:55;7.73;;;5.87;;
12511;SDS011;6321;53.798;10.382;2022-09-13T02:00:25;7.10;;;6.20;;
12511;SDS011;6321;53.798;10.382;2022-09-13T02:02:53;6.03;;;5.40;;
12511;SDS011;6321;53.798;10.382;2022-09-13T02:05:41;6.40;;;5.80;;
12511;SDS011;6321;53.798;10.382;2022-09-13T02:08:11;6.47;;;5.87;;
12511;SDS011;6321;53.798;10.382;2022-09-13T02:10:40;6.97;;;5.67;;
12511;SDS011;6321;53.798;10.382;2022-09-13T02:13:09;6.57;;;5.97;;
12511;SDS011;6321;53.798;10.382;2022-09-13T02:15:37;9.63;;;5.90;;
12511;SDS011;6321;53.798;10.382;2022-09-13T02:18:09;6.87;;;5.77;;
12511;SDS011;6321;53.798;10.382;2022-09-13T02:20:42;6.90;;;6.00;;
12511;SDS011;6321;53.798;10.382;2022-09-13T02:23:17;6.83;;;6.23;;
12511;SDS011;6321;53.798;10.382;2022-09-13T02:25:46;6.43;;;5.73;;
12511;SDS011;6321;53.798;10.382;2022-09-13T02:28:14;7.40;;;6.53;;
12511;SDS011;6321;53.798;10.382;2022-09-13T02:30:43;7.40;;;6.70;;
12511;SDS011;6321;53.798;10.382;2022-09-13T02:33:11;7.43;;;6.23;;
12511;SDS011;6321;53.798;10.382;2022-09-13T02:36:13;8.30;;;5.93;;
12511;SDS011;6321;53.798;10.382;2022-09-13T02:38:39;6.97;;;6.27;;
12511;SDS011;6321;53.798;10.382;2022-09-13T02:41:17;7.27;;;6.23;;
12511;SDS011;6321;53.798;10.382;2022-09-13T02:43:49;8.00;;;6.67;;
12511;SDS011;6321;53.798;10.382;2022-09-13T02:46:28;8.93;;;7.03;;
12511;SDS011;6321;53.798;10.382;2022-09-13T02:53:58;7.20;;;6.50;;
12511;SDS011;6321;53.798;10.382;2022-09-13T02:59:16;7.43;;;6.73;;
12511;SDS011;6321;53.798;10.382;2022-09-13T03:01:49;6.70;;;6.10;;
12511;SDS011;6321;53.798;10.382;2022-09-13T03:04:17;7.83;;;6.47;;
12511;SDS011;6321;53.798;10.382;2022-09-13T03:06:43;8.27;;;6.63;;
12511;SDS011;6321;53.798;10.382;2022-09-13T03:09:09;6.60;;;6.00;;
12511;SDS011;6321;53.798;10.382;2022-09-13T03:11:46;8.57;;;7.13;;
12511;SDS011;6321;53.798;10.382;2022-09-13T03:17:10;8.83;;;6.40;;
12511;SDS011;6321;53.798;10.382;2022-09-13T03:24:57;8.03;;;6.40;;
12511;SDS011;6321;53.798;10.382;2022-09-13T03:30:12;7.80;;;7.00;;
12511;SDS011;6321;53.798;10.382;2022-09-13T03:35:13;8.50;;;7.60;;
12511;SDS011;6321;53.798;10.382;2022-09-13T03:40:27;7.10;;;6.27;;
12511;SDS011;6321;53.798;10.382;2022-09-13T03:43:07;9.17;;;8.23;;
12511;SDS011;6321;53.798;10.382;2022-09-13T03:45:36;9.50;;;7.57;;
12511;SDS011;6321;53.798;10.382;2022-09-13T03:48:03;11.53;;;7.87;;
12511;SDS011;6321;53.798;10.382;2022-09-13T03:50:30;9.40;;;8.50;;
12511;SDS011;6321;53.798;10.382;2022-09-13T03:52:58;10.10;;;8.97;;
12511;SDS011;6321;53.798;10.382;2022-09-13T03:55:25;10.97;;;8.10;;
12511;SDS011;6321;53.798;10.382;2022-09-13T03:57:51;9.83;;;8.03;;
12511;SDS011;6321;53.798;10.382;2022-09-13T04:00:17;9.77;;;8.30;;
12511;SDS011;6321;53.798;10.382;2022-09-13T04:02:43;10.03;;;8.57;;
12511;SDS011;6321;53.798;10.382;2022-09-13T04:05:09;10.13;;;8.10;;
12511;SDS011;6321;53.798;10.382;2022-09-13T04:07:35;10.67;;;8.30;;
12511;SDS011;6321;53.798;10.382;2022-09-13T04:10:01;10.80;;;9.10;;
12511;SDS011;6321;53.798;10.382;2022-09-13T04:12:27;10.83;;;8.87;;
12511;SDS011;6321;53.798;10.382;2022-09-13T04:14:55;10.20;;;9.13;;
12511;SDS011;6321;53.798;10.382;2022-09-13T04:17:21;11.53;;;8.97;;
12511;SDS011;6321;53.798;10.382;2022-09-13T04:19:47;12.63;;;9.57;;
12511;SDS011;6321;53.798;10.382;2022-09-13T04:22:13;10.67;;;9.17;;
12511;SDS011;6321;53.798;10.382;2022-09-13T04:24:39;11.53;;;10.37;;
12511;SDS011;6321;53.798;10.382;2022-09-13T04:27:05;12.10;;;10.77;;
12511;SDS011;6321;53.798;10.382;2022-09-13T04:29:31;11.93;;;10.73;;
12511;SDS011;6321;53.798;10.382;2022-09-13T04:31:58;13.83;;;10.67;;
12511;SDS011;6321;53.798;10.382;2022-09-13T04:34:24;15.27;;;10.67;;
12511;SDS011;6321;53.798;10.382;2022-09-13T04:36:50;14.77;;;11.47;;
12511;SDS011;6321;53.798;10.382;2022-09-13T04:39:17;15.20;;;11.50;;
12511;SDS011;6321;53.798;10.382;2022-09-13T04:41:44;17.37;;;12.30;;
12511;SDS011;6321;53.798;10.382;2022-09-13T04:44:13;18.13;;;11.57;;
12511;SDS011;6321;53.798;10.382;2022-09-13T04:46:39;16.70;;;11.93;;
12511;SDS011;6321;53.798;10.382;2022-09-13T04:49:05;16.57;;;13.20;;
12511;SDS011;6321;53.798;10.382;2022-09-13T04:51:31;23.90;;;12.53;;
12511;SDS011;6321;53.798;10.382;2022-09-13T04:53:57;17.10;;;13.60;;
12511;SDS011;6321;53.798;10.382;2022-09-13T04:56:24;16.13;;;13.40;;
12511;SDS011;6321;53.798;10.382;2022-09-13T04:58:50;17.23;;;12.73;;
12511;SDS011;6321;53.798;10.382;2022-09-13T05:01:16;15.90;;;14.13;;
12511;SDS011;6321;53.798;10.382;2022-09-13T05:03:42;21.83;;;15.40;;
12511;SDS011;6321;53.798;10.382;2022-09-13T05:06:10;19.17;;;14.67;;
12511;SDS011;6321;53.798;10.382;2022-09-13T05:08:37;21.50;;;15.23;;
12511;SDS011;6321;53.798;10.382;2022-09-13T05:11:03;26.07;;;16.40;;
12511;SDS011;6321;53.798;10.382;2022-09-13T05:13:30;21.07;;;16.07;;
12511;SDS011;6321;53.798;10.382;2022-09-13T05:15:56;24.00;;;17.27;;
12511;SDS011;6321;53.798;10.382;2022-09-13T05:18:29;26.20;;;18.07;;
12511;SDS011;6321;53.798;10.382;2022-09-13T05:20:56;23.47;;;16.60;;
12511;SDS011;6321;53.798;10.382;2022-09-13T05:23:22;24.40;;;17.87;;
12511;SDS011;6321;53.798;10.382;2022-09-13T05:25:54;25.10;;;17.87;;
12511;SDS011;6321;53.798;10.382;2022-09-13T05:28:20;32.77;;;19.40;;
12511;SDS011;6321;53.798;10.382;2022-09-13T05:30:53;24.13;;;18.27;;
12511;SDS011;6321;53.798;10.382;2022-09-13T05:33:19;26.63;;;18.03;;
12511;SDS011;6321;53.798;10.382;2022-09-13T05:35:45;26.07;;;18.40;;
12511;SDS011;6321;53.798;10.382;2022-09-13T05:38:11;26.47;;;19.17;;
12511;SDS011;6321;53.798;10.382;2022-09-13T05:40:37;27.50;;;19.43;;
12511;SDS011;6321;53.798;10.382;2022-09-13T05:43:03;26.70;;;19.20;;
12511;SDS011;6321;53.798;10.382;2022-09-13T05:45:29;27.07;;;20.67;;
12511;SDS011;6321;53.798;10.382;2022-09-13T05:47:55;27.33;;;20.00;;
12511;SDS011;6321;53.798;10.382;2022-09-13T05:50:21;29.90;;;19.43;;
12511;SDS011;6321;53.798;10.382;2022-09-13T05:52:50;27.10;;;20.50;;
12511;SDS011;6321;53.798;10.382;2022-09-13T05:55:17;31.07;;;21.67;;
12511;SDS011;6321;53.798;10.382;2022-09-13T05:57:43;28.77;;;20.37;;
12511;SDS011;6321;53.798;10.382;2022-09-13T06:00:09;29.43;;;20.13;;
12511;SDS011;6321;53.798;10.382;2022-09-13T06:02:35;29.47;;;21.40;;
12511;SDS011;6321;53.798;10.382;2022-09-13T06:05:01;28.97;;;20.77;;
12511;SDS011;6321;53.798;10.382;2022-09-13T06:07:27;30.77;;;20.90;;
12511;SDS011;6321;53.798;10.382;2022-09-13T06:09:53;27.67;;;19.90;;
12511;SDS011;6321;53.798;10.382;2022-09-13T06:12:19;24.50;;;19.47;;
12511;SDS011;6321;53.798;10.382;2022-09-13T06:14:45;27.90;;;18.67;;
12511;SDS011;6321;53.798;10.382;2022-09-13T06:17:11;28.17;;;19.13;;
12511;SDS011;6321;53.798;10.382;2022-09-13T06:19:36;31.43;;;19.70;;
12511;SDS011;6321;53.798;10.382;2022-09-13T06:22:03;27.93;;;19.83;;
12511;SDS011;6321;53.798;10.382;2022-09-13T06:24:29;25.40;;;18.10;;
12511;SDS011;6321;53.798;10.382;2022-09-13T06:26:55;28.73;;;19.27;;
12511;SDS011;6321;53.798;10.382;2022-09-13T06:29:21;30.47;;;19.77;;
12511;SDS011;6321;53.798;10.382;2022-09-13T06:31:47;28.90;;;20.20;;
12511;SDS011;6321;53.798;10.382;2022-09-13T06:34:13;28.17;;;19.10;;
12511;SDS011;6321;53.798;10.382;2022-09-13T06:36:42;27.80;;;20.00;;
12511;SDS011;6321;53.798;10.382;2022-09-13T06:39:07;31.30;;;22.57;;
12511;SDS011;6321;53.798;10.382;2022-09-13T06:41:33;28.73;;;18.60;;
12511;SDS011;6321;53.798;10.382;2022-09-13T06:44:00;26.07;;;19.47;;
12511;SDS011;6321;53.798;10.382;2022-09-13T06:46:27;25.60;;;18.17;;
12511;SDS011;6321;53.798;10.382;2022-09-13T06:48:53;28.70;;;18.87;;
12511;SDS011;6321;53.798;10.382;2022-09-13T06:51:22;24.73;;;18.87;;
12511;SDS011;6321;53.798;10.382;2022-09-13T06:53:48;30.67;;;18.93;;
12511;SDS011;6321;53.798;10.382;2022-09-13T06:56:34;31.27;;;19.60;;
12511;SDS011;6321;53.798;10.382;2022-09-13T06:59:01;26.43;;;17.93;;
12511;SDS011;6321;53.798;10.382;2022-09-13T07:01:29;32.93;;;19.83;;
12511;SDS011;6321;53.798;10.382;2022-09-13T07:03:59;28.73;;;19.63;;
12511;SDS011;6321;53.798;10.382;2022-09-13T07:06:30;31.27;;;18.73;;
12511;SDS011;6321;53.798;10.382;2022-09-13T07:08:57;27.80;;;18.03;;
12511;SDS011;6321;53.798;10.382;2022-09-13T07:11:24;31.03;;;18.40;;
12511;SDS011;6321;53.798;10.382;2022-09-13T07:13:51;26.83;;;19.70;;
12511;SDS011;6321;53.798;10.382;2022-09-13T07:16:17;25.57;;;17.73;;
12511;SDS011;6321;53.798;10.382;2022-09-13T07:18:44;26.30;;;17.60;;
12511;SDS011;6321;53.798;10.382;2022-09-13T07:21:10;26.77;;;19.17;;
12511;SDS011;6321;53.798;10.382;2022-09-13T07:23:37;24.30;;;18.20;;
12511;SDS011;6321;53.798;10.382;2022-09-13T07:26:03;23.47;;;16.07;;
12511;SDS011;6321;53.798;10.382;2022-09-13T07:28:31;26.13;;;14.67;;
12511;SDS011;6321;53.798;10.382;2022-09-13T07:31:04;20.77;;;14.97;;
12511;SDS011;6321;53.798;10.382;2022-09-13T07:33:30;23.27;;;15.07;;
12511;SDS011;6321;53.798;10.382;2022-09-13T07:35:56;21.40;;;14.50;;
12511;SDS011;6321;53.798;10.382;2022-09-13T07:38:23;23.70;;;13.97;;
12511;SDS011;6321;53.798;10.382;2022-09-13T07:40:56;20.13;;;13.77;;
12511;SDS011;6321;53.798;10.382;2022-09-13T07:43:23;22.37;;;13.60;;
12511;SDS011;6321;53.798;10.382;2022-09-13T07:45:58;16.37;;;10.83;;
12511;SDS011;6321;53.798;10.382;2022-09-13T07:48:25;18.57;;;12.47;;
12511;SDS011;6321;53.798;10.382;2022-09-13T07:51:11;15.03;;;9.30;;
12511;SDS011;6321;53.798;10.382;2022-09-13T07:53:37;15.83;;;9.47;;
12511;SDS011;6321;53.798;10.382;2022-09-13T07:56:04;17.97;;;9.30;;
12511;SDS011;6321;53.798;10.382;2022-09-13T07:58:31;12.23;;;7.63;;
12511;SDS011;6321;53.798;10.382;2022-09-13T08:01:05;11.47;;;5.10;;
12511;SDS011;6321;53.798;10.382;2022-09-13T08:03:32;7.77;;;3.17;;
12511;SDS011;6321;53.798;10.382;2022-09-13T08:05:58;11.03;;;3.00;;
12511;SDS011;6321;53.798;10.382;2022-09-13T08:08:24;7.17;;;2.30;;
12511;SDS011;6321;53.798;10.382;2022-09-13T08:10:50;7.20;;;2.70;;
12511;SDS011;6321;53.798;10.382;2022-09-13T08:13:16;4.60;;;2.33;;
12511;SDS011;6321;53.798;10.382;2022-09-13T08:15:42;6.90;;;2.20;;
12511;SDS011;6321;53.798;10.382;2022-09-13T08:18:08;6.07;;;2.53;;
12511;SDS011;6321;53.798;10.382;2022-09-13T08:20:34;8.10;;;2.20;;
12511;SDS011;6321;53.798;10.382;2022-09-13T08:23:02;3.33;;;2.13;;
12511;SDS011;6321;53.798;10.382;2022-09-13T08:25:30;5.83;;;1.67;;
12511;SDS011;6321;53.798;10.382;2022-09-13T08:27:57;5.63;;;2.10;;
12511;SDS011;6321;53.798;10.382;2022-09-13T08:30:23;9.93;;;2.87;;
12511;SDS011;6321;53.798;10.382;2022-09-13T08:32:56;5.17;;;1.80;;
12511;SDS011;6321;53.798;10.382;2022-09-13T08:35:22;4.67;;;1.73;;
12511;SDS011;6321;53.798;10.382;2022-09-13T08:37:49;4.37;;;1.73;;
12511;SDS011;6321;53.798;10.382;2022-09-13T08:40:14;7.10;;;1.90;;
12511;SDS011;6321;53.798;10.382;2022-09-13T08:42:50;4.00;;;1.70;;
12511;SDS011;6321;53.798;10.382;2022-09-13T08:45:18;6.67;;;2.03;;
12511;SDS011;6321;53.798;10.382;2022-09-13T08:47:47;3.37;;;1.83;;
12511;SDS011;6321;53.798;10.382;2022-09-13T08:50:19;6.33;;;1.70;;
12511;SDS011;6321;53.798;10.382;2022-09-13T08:53:31;5.83;;;1.70;;
12511;SDS011;6321;53.798;10.382;2022-09-13T08:55:40;2.37;;;1.43;;
12511;SDS011;6321;53.798;10.382;2022-09-13T08:58:16;4.10;;;1.40;;
12511;SDS011;6321;53.798;10.382;2022-09-13T09:00:46;4.90;;;2.10;;
12511;SDS011;6321;53.798;10.382;2022-09-13T09:03:18;3.03;;;1.23;;
12511;SDS011;6321;53.798;10.382;2022-09-13T09:05:47;5.03;;;1.60;;
12511;SDS011;6321;53.798;10.382;2022-09-13T09:10:47;3.17;;;1.20;;
12511;SDS011;6321;53.798;10.382;2022-09-13T09:13:18;3.63;;;1.10;;
12511;SDS011;6321;53.798;10.382;2022-09-13T09:15:46;4.63;;;1.30;;
12511;SDS011;6321;53.798;10.382;2022-09-13T09:18:17;7.67;;;1.37;;
12511;SDS011;6321;53.798;10.382;2022-09-13T09:20:49;3.27;;;1.37;;
12511;SDS011;6321;53.798;10.382;2022-09-13T09:23:21;3.43;;;1.30;;
12511;SDS011;6321;53.798;10.382;2022-09-13T09:28:34;5.27;;;1.57;;
12511;SDS011;6321;53.798;10.382;2022-09-13T09:31:04;4.87;;;1.50;;
12511;SDS011;6321;53.798;10.382;2022-09-13T09:33:43;2.53;;;1.33;;
12511;SDS011;6321;53.798;10.382;2022-09-13T09:36:31;4.20;;;1.53;;
12511;SDS011;6321;53.798;10.382;2022-09-13T09:39:02;3.33;;;1.20;;
12511;SDS011;6321;53.798;10.382;2022-09-13T09:41:29;3.87;;;1.43;;
12511;SDS011;6321;53.798;10.382;2022-09-13T09:46:38;3.80;;;1.60;;
12511;SDS011;6321;53.798;10.382;2022-09-13T09:49:08;4.90;;;1.57;;
12511;SDS011;6321;53.798;10.382;2022-09-13T09:51:57;4.50;;;1.33;;
12511;SDS011;6321;53.798;10.382;2022-09-13T09:54:24;5.13;;;1.50;;
12511;SDS011;6321;53.798;10.382;2022-09-13T09:56:53;2.50;;;1.07;;
12511;SDS011;6321;53.798;10.382;2022-09-13T09:59:27;2.77;;;1.30;;
12511;SDS011;6321;53.798;10.382;2022-09-13T10:01:53;4.37;;;1.43;;
12511;SDS011;6321;53.798;10.382;2022-09-13T10:04:21;8.03;;;1.73;;
12511;SDS011;6321;53.798;10.382;2022-09-13T10:06:47;3.80;;;1.37;;
12511;SDS011;6321;53.798;10.382;2022-09-13T10:09:14;6.23;;;1.50;;
12511;SDS011;6321;53.798;10.382;2022-09-13T10:11:45;3.90;;;1.63;;
12511;SDS011;6321;53.798;10.382;2022-09-13T10:14:29;7.80;;;1.40;;
12511;SDS011;6321;53.798;10.382;2022-09-13T10:19:31;7.23;;;1.70;;
12511;SDS011;6321;53.798;10.382;2022-09-13T10:22:01;5.90;;;1.57;;
12511;SDS011;6321;53.798;10.382;2022-09-13T10:24:27;5.70;;;1.37;;
12511;SDS011;6321;53.798;10.382;2022-09-13T10:26:54;4.97;;;1.50;;
12511;SDS011;6321;53.798;10.382;2022-09-13T10:29:20;8.30;;;1.73;;
12511;SDS011;6321;53.798;10.382;2022-09-13T10:31:47;6.13;;;1.43;;
12511;SDS011;6321;53.798;10.382;2022-09-13T10:34:19;4.07;;;1.33;;
12511;SDS011;6321;53.798;10.382;2022-09-13T10:37:32;4.03;;;1.30;;
12511;SDS011;6321;53.798;10.382;2022-09-13T10:39:33;3.23;;;1.70;;
12511;SDS011;6321;53.798;10.382;2022-09-13T10:42:04;4.77;;;1.50;;
12511;SDS011;6321;53.798;10.382;2022-09-13T10:44:44;5.90;;;1.80;;
12511;SDS011;6321;53.798;10.382;2022-09-13T10:47:17;4.57;;;1.20;;
12511;SDS011;6321;53.798;10.382;2022-09-13T10:49:45;8.07;;;1.63;;
12511;SDS011;6321;53.798;10.382;2022-09-13T10:52:22;5.97;;;1.53;;
12511;SDS011;6321;53.798;10.382;2022-09-13T10:54:49;8.70;;;2.07;;
12511;SDS011;6321;53.798;10.382;2022-09-13T10:57:34;3.90;;;1.50;;
12511;SDS011;6321;53.798;10.382;2022-09-13T11:00:00;7.33;;;1.37;;
12511;SDS011;6321;53.798;10.382;2022-09-13T11:05:03;3.57;;;1.77;;
12511;SDS011;6321;53.798;10.382;2022-09-13T11:13:11;6.20;;;1.70;;
12511;SDS011;6321;53.798;10.382;2022-09-13T11:15:46;4.37;;;1.90;;
12511;SDS011;6321;53.798;10.382;2022-09-13T11:18:24;4.57;;;1.63;;
12511;SDS011;6321;53.798;10.382;2022-09-13T11:20:56;10.80;;;2.03;;
12511;SDS011;6321;53.798;10.382;2022-09-13T11:26:23;7.77;;;1.73;;
12511;SDS011;6321;53.798;10.382;2022-09-13T11:36:26;5.77;;;1.87;;
12511;SDS011;6321;53.798;10.382;2022-09-13T11:39:17;6.13;;;1.30;;
12511;SDS011;6321;53.798;10.382;2022-09-13T11:41:49;10.03;;;1.77;;
12511;SDS011;6321;53.798;10.382;2022-09-13T11:44:23;6.90;;;1.60;;
12511;SDS011;6321;53.798;10.382;2022-09-13T11:47:13;5.07;;;1.50;;
12511;SDS011;6321;53.798;10.382;2022-09-13T11:52:09;6.63;;;1.80;;
12511;SDS011;6321;53.798;10.382;2022-09-13T11:57:25;5.87;;;2.00;;
12511;SDS011;6321;53.798;10.382;2022-09-13T11:59:59;6.40;;;1.83;;
12511;SDS011;6321;53.798;10.382;2022-09-13T12:02:34;3.97;;;1.30;;
12511;SDS011;6321;53.798;10.382;2022-09-13T12:05:21;7.03;;;2.50;;
12511;SDS011;6321;53.798;10.382;2022-09-13T12:08:00;9.33;;;1.40;;
12511;SDS011;6321;53.798;10.382;2022-09-13T12:10:28;4.63;;;1.50;;
12511;SDS011;6321;53.798;10.382;2022-09-13T12:12:56;7.33;;;1.70;;
12511;SDS011;6321;53.798;10.382;2022-09-13T12:15:34;4.00;;;1.80;;
12511;SDS011;6321;53.798;10.382;2022-09-13T12:18:04;4.40;;;1.83;;
12511;SDS011;6321;53.798;10.382;2022-09-13T12:23:00;3.20;;;1.60;;
12511;SDS011;6321;53.798;10.382;2022-09-13T12:25:32;4.07;;;1.40;;
12511;SDS011;6321;53.798;10.382;2022-09-13T12:28:12;7.27;;;1.40;;
12511;SDS011;6321;53.798;10.382;2022-09-13T12:30:47;3.17;;;1.27;;
12511;SDS011;6321;53.798;10.382;2022-09-13T12:33:15;3.60;;;1.30;;
12511;SDS011;6321;53.798;10.382;2022-09-13T12:35:48;4.87;;;1.70;;
12511;SDS011;6321;53.798;10.382;2022-09-13T12:41:09;2.97;;;1.30;;
12511;SDS011;6321;53.798;10.382;2022-09-13T12:46:26;3.80;;;1.60;;
12511;SDS011;6321;53.798;10.382;2022-09-13T12:57:50;4.73;;;1.33;;
12511;SDS011;6321;53.798;10.382;2022-09-13T13:00:23;4.87;;;1.37;;
12511;SDS011;6321;53.798;10.382;2022-09-13T13:02:57;4.13;;;1.30;;
12511;SDS011;6321;53.798;10.382;2022-09-13T13:07:52;3.93;;;1.50;;
12511;SDS011;6321;53.798;10.382;2022-09-13T13:10:26;2.87;;;1.40;;
12511;SDS011;6321;53.798;10.382;2022-09-13T13:12:54;2.83;;;1.27;;
12511;SDS011;6321;53.798;10.382;2022-09-13T13:17:50;4.43;;;2.40;;
12511;SDS011;6321;53.798;10.382;2022-09-13T13:23:02;4.10;;;1.50;;
12511;SDS011;6321;53.798;10.382;2022-09-13T13:25:33;5.43;;;1.30;;
12511;SDS011;6321;53.798;10.382;2022-09-13T13:28:02;5.30;;;1.60;;
12511;SDS011;6321;53.798;10.382;2022-09-13T13:33:11;2.57;;;1.20;;
12511;SDS011;6321;53.798;10.382;2022-09-13T13:35:38;2.93;;;1.27;;
12511;SDS011;6321;53.798;10.382;2022-09-13T13:40:49;4.43;;;1.43;;
12511;SDS011;6321;53.798;10.382;2022-09-13T13:43:28;5.27;;;1.60;;
12511;SDS011;6321;53.798;10.382;2022-09-13T13:45:55;2.77;;;1.40;;
12511;SDS011;6321;53.798;10.382;2022-09-13T13:48:35;6.20;;;1.50;;
12511;SDS011;6321;53.798;10.382;2022-09-13T13:51:18;2.17;;;1.10;;
12511;SDS011;6321;53.798;10.382;2022-09-13T13:53:59;7.23;;;1.30;;
12511;SDS011;6321;53.798;10.382;2022-09-13T13:56:33;3.43;;;1.20;;
12511;SDS011;6321;53.798;10.382;2022-09-13T13:59:12;4.53;;;1.60;;
12511;SDS011;6321;53.798;10.382;2022-09-13T14:01:43;3.60;;;1.70;;
12511;SDS011;6321;53.798;10.382;2022-09-13T14:04:16;5.57;;;1.30;;
12511;SDS011;6321;53.798;10.382;2022-09-13T14:06:56;5.43;;;1.63;;
12511;SDS011;6321;53.798;10.382;2022-09-13T14:12:15;6.50;;;1.70;;
12511;SDS011;6321;53.798;10.382;2022-09-13T14:15:01;5.90;;;1.37;;
12511;SDS011;6321;53.798;10.382;2022-09-13T14:20:08;7.03;;;2.23;;
12511;SDS011;6321;53.798;10.382;2022-09-13T14:22:34;6.27;;;1.57;;
12511;SDS011;6321;53.798;10.382;2022-09-13T14:27:39;8.50;;;2.17;;
12511;SDS011;6321;53.798;10.382;2022-09-13T14:32:41;4.53;;;1.70;;
12511;SDS011;6321;53.798;10.382;2022-09-13T14:35:23;5.60;;;1.93;;
12511;SDS011;6321;53.798;10.382;2022-09-13T14:37:49;5.10;;;1.43;;
12511;SDS011;6321;53.798;10.382;2022-09-13T14:40:20;7.00;;;2.10;;
12511;SDS011;6321;53.798;10.382;2022-09-13T14:42:46;3.20;;;1.53;;
12511;SDS011;6321;53.798;10.382;2022-09-13T14:45:13;5.93;;;1.60;;
12511;SDS011;6321;53.798;10.382;2022-09-13T14:50:13;5.33;;;1.60;;
12511;SDS011;6321;53.798;10.382;2022-09-13T14:52:43;6.70;;;1.67;;
12511;SDS011;6321;53.798;10.382;2022-09-13T14:55:13;7.10;;;1.70;;
12511;SDS011;6321;53.798;10.382;2022-09-13T14:57:41;6.33;;;1.70;;
12511;SDS011;6321;53.798;10.382;2022-09-13T15:00:15;3.57;;;1.60;;
12511;SDS011;6321;53.798;10.382;2022-09-13T15:02:45;3.30;;;1.30;;
12511;SDS011;6321;53.798;10.382;2022-09-13T15:05:13;2.70;;;1.40;;
12511;SDS011;6321;53.798;10.382;2022-09-13T15:07:40;4.80;;;1.50;;
12511;SDS011;6321;53.798;10.382;2022-09-13T15:13:15;6.03;;;1.60;;
12511;SDS011;6321;53.798;10.382;2022-09-13T15:15:40;3.27;;;1.40;;
12511;SDS011;6321;53.798;10.382;2022-09-13T15:20:49;5.70;;;1.40;;
12511;SDS011;6321;53.798;10.382;2022-09-13T15:23:16;5.57;;;1.37;;
12511;SDS011;6321;53.798;10.382;2022-09-13T15:25:52;5.63;;;1.60;;
12511;SDS011;6321;53.798;10.382;2022-09-13T15:28:23;7.63;;;1.60;;
12511;SDS011;6321;53.798;10.382;2022-09-13T15:30:49;4.80;;;1.43;;
12511;SDS011;6321;53.798;10.382;2022-09-13T15:33:26;6.33;;;1.73;;
12511;SDS011;6321;53.798;10.382;2022-09-13T15:36:05;5.73;;;1.53;;
12511;SDS011;6321;53.798;10.382;2022-09-13T15:38:36;4.43;;;1.60;;
12511;SDS011;6321;53.798;10.382;2022-09-13T15:41:12;4.53;;;1.83;;
12511;SDS011;6321;53.798;10.382;2022-09-13T15:43:39;3.77;;;1.57;;
12511;SDS011;6321;53.798;10.382;2022-09-13T15:46:05;4.73;;;1.37;;
12511;SDS011;6321;53.798;10.382;2022-09-13T15:48:31;4.13;;;1.30;;
12511;SDS011;6321;53.798;10.382;2022-09-13T15:51:03;6.77;;;1.73;;
12511;SDS011;6321;53.798;10.382;2022-09-13T15:53:29;6.50;;;1.53;;
12511;SDS011;6321;53.798;10.382;2022-09-13T15:55:55;5.53;;;1.30;;
12511;SDS011;6321;53.798;10.382;2022-09-13T15:58:21;6.23;;;1.73;;
12511;SDS011;6321;53.798;10.382;2022-09-13T16:00:47;4.47;;;1.60;;
12511;SDS011;6321;53.798;10.382;2022-09-13T16:03:13;3.67;;;1.93;;
12511;SDS011;6321;53.798;10.382;2022-09-13T16:05:39;4.83;;;1.70;;
12511;SDS011;6321;53.798;10.382;2022-09-13T16:08:07;5.17;;;1.70;;
12511;SDS011;6321;53.798;10.382;2022-09-13T16:10:34;3.53;;;1.53;;
12511;SDS011;6321;53.798;10.382;2022-09-13T16:13:00;5.47;;;1.53;;
12511;SDS011;6321;53.798;10.382;2022-09-13T16:15:26;6.73;;;1.60;;
12511;SDS011;6321;53.798;10.382;2022-09-13T16:17:53;5.77;;;1.90;;
12511;SDS011;6321;53.798;10.382;2022-09-13T16:20:18;6.07;;;1.60;;
12511;SDS011;6321;53.798;10.382;2022-09-13T16:22:45;4.97;;;1.57;;
12511;SDS011;6321;53.798;10.382;2022-09-13T16:25:11;7.30;;;1.60;;
12511;SDS011;6321;53.798;10.382;2022-09-13T16:27:38;6.97;;;1.80;;
12511;SDS011;6321;53.798;10.382;2022-09-13T16:30:04;5.70;;;1.37;;
12511;SDS011;6321;53.798;10.382;2022-09-13T16:32:31;4.53;;;1.77;;
12511;SDS011;6321;53.798;10.382;2022-09-13T16:34:57;4.17;;;1.70;;
12511;SDS011;6321;53.798;10.382;2022-09-13T16:37:22;2.87;;;1.43;;
12511;SDS011;6321;53.798;10.382;2022-09-13T16:39:49;4.77;;;1.20;;
12511;SDS011;6321;53.798;10.382;2022-09-13T16:42:15;7.23;;;2.03;;
12511;SDS011;6321;53.798;10.382;2022-09-13T16:44:41;4.00;;;1.27;;
12511;SDS011;6321;53.798;10.382;2022-09-13T16:47:08;6.53;;;1.50;;
12511;SDS011;6321;53.798;10.382;2022-09-13T16:49:33;7.10;;;1.63;;
12511;SDS011;6321;53.798;10.382;2022-09-13T16:51:59;2.27;;;1.20;;
12511;SDS011;6321;53.798;10.382;2022-09-13T16:54:26;5.27;;;1.70;;
12511;SDS011;6321;53.798;10.382;2022-09-13T16:56:54;3.80;;;2.00;;
12511;SDS011;6321;53.798;10.382;2022-09-13T16:59:21;5.33;;;1.83;;
12511;SDS011;6321;53.798;10.382;2022-09-13T17:01:47;5.27;;;1.60;;